sensor_id;sensor_type;location;lat;lon;timestamp;temperature;humidity
5901;DHT22;2976;49.764;9.796;2022-09-17T00:00:14;8.50;99.90
5901;DHT22;2976;49.764;9.796;2022-09-17T00:02:40;8.50;99.90
5901;DHT22;2976;49.764;9.796;2022-09-17T00:05:12;8.60;99.90
5901;DHT22;2976;49.764;9.796;2022-09-17T00:07:37;8.60;99.90
5901;DHT22;2976;49.764;9.796;2022-09-17T00:10:04;8.70;99.90
5901;DHT22;2976;49.764;9.796;2022-09-17T00:12:30;8.70;99.90
5901;DHT22;2976;49.764;9.796;2022-09-17T00:14:56;8.60;99.90
5901;DHT22;2976;49.764;9.796;2022-09-17T00:17:22;8.50;99.90
5901;DHT22;2976;49.764;9.796;2022-09-17T00:19:47;8.50;99.90
5901;DHT22;2976;49.764;9.796;2022-09-17T00:22:14;8.40;99.90
5901;DHT22;2976;49.764;9.796;2022-09-17T00:24:40;8.40;99.90
5901;DHT22;2976;49.764;9.796;2022-09-17T00:27:06;8.30;99.90
5901;DHT22;2976;49.764;9.796;2022-09-17T00:29:31;8.30;99.90
5901;DHT22;2976;49.764;9.796;2022-09-17T00:31:57;8.30;99.90
5901;DHT22;2976;49.764;9.796;2022-09-17T00:34:22;8.20;99.90
5901;DHT22;2976;49.764;9.796;2022-09-17T00:36:48;8.20;99.90
5901;DHT22;2976;49.764;9.796;2022-09-17T00:39:13;8.20;99.90
5901;DHT22;2976;49.764;9.796;2022-09-17T00:41:41;8.30;99.90
5901;DHT22;2976;49.764;9.796;2022-09-17T00:44:45;8.30;99.90
5901;DHT22;2976;49.764;9.796;2022-09-17T00:47:14;8.30;99.90
5901;DHT22;2976;49.764;9.796;2022-09-17T00:49:40;8.30;99.90
5901;DHT22;2976;49.764;9.796;2022-09-17T00:52:15;8.30;99.90
5901;DHT22;2976;49.764;9.796;2022-09-17T00:54:45;8.30;99.90
5901;DHT22;2976;49.764;9.796;2022-09-17T00:57:13;8.30;99.90
5901;DHT22;2976;49.764;9.796;2022-09-17T00:59:39;8.30;99.90
5901;DHT22;2976;49.764;9.796;2022-09-17T01:02:05;8.30;99.90
5901;DHT22;2976;49.764;9.796;2022-09-17T01:04:31;8.30;99.90
5901;DHT22;2976;49.764;9.796;2022-09-17T01:09:58;8.30;99.90
5901;DHT22;2976;49.764;9.796;2022-09-17T01:21:04;8.40;99.90
5901;DHT22;2976;49.764;9.796;2022-09-17T01:29:24;8.40;99.90
5901;DHT22;2976;49.764;9.796;2022-09-17T01:34:54;8.30;99.90
5901;DHT22;2976;49.764;9.796;2022-09-17T01:37:33;8.30;99.90
5901;DHT22;2976;49.764;9.796;2022-09-17T01:40:29;8.40;99.90
5901;DHT22;2976;49.764;9.796;2022-09-17T01:43:16;8.30;99.90
5901;DHT22;2976;49.764;9.796;2022-09-17T01:45:51;8.20;99.90
5901;DHT22;2976;49.764;9.796;2022-09-17T01:48:19;8.20;99.90
5901;DHT22;2976;49.764;9.796;2022-09-17T01:50:56;8.20;99.90
5901;DHT22;2976;49.764;9.796;2022-09-17T01:53:36;8.30;99.90
5901;DHT22;2976;49.764;9.796;2022-09-17T01:56:04;8.30;99.90
5901;DHT22;2976;49.764;9.796;2022-09-17T01:58:35;8.30;99.90
5901;DHT22;2976;49.764;9.796;2022-09-17T02:01:05;8.30;99.90
5901;DHT22;2976;49.764;9.796;2022-09-17T02:03:40;8.30;99.90
5901;DHT22;2976;49.764;9.796;2022-09-17T02:06:13;8.40;99.90
5901;DHT22;2976;49.764;9.796;2022-09-17T02:09:11;8.40;99.90
5901;DHT22;2976;49.764;9.796;2022-09-17T02:11:40;8.40;99.90
5901;DHT22;2976;49.764;9.796;2022-09-17T02:14:14;8.30;99.90
5901;DHT22;2976;49.764;9.796;2022-09-17T02:16:48;8.20;99.90
5901;DHT22;2976;49.764;9.796;2022-09-17T02:19:22;8.10;99.90
5901;DHT22;2976;49.764;9.796;2022-09-17T02:30:11;8.00;99.90
5901;DHT22;2976;49.764;9.796;2022-09-17T02:32:36;8.10;99.90
5901;DHT22;2976;49.764;9.796;2022-09-17T02:35:03;8.10;99.90
5901;DHT22;2976;49.764;9.796;2022-09-17T02:37:29;8.20;99.90
5901;DHT22;2976;49.764;9.796;2022-09-17T02:39:54;8.30;99.90
5901;DHT22;2976;49.764;9.796;2022-09-17T02:42:55;8.40;99.90
5901;DHT22;2976;49.764;9.796;2022-09-17T02:45:44;8.40;99.90
5901;DHT22;2976;49.764;9.796;2022-09-17T02:48:51;8.30;99.90
5901;DHT22;2976;49.764;9.796;2022-09-17T02:56:51;8.40;99.90
5901;DHT22;2976;49.764;9.796;2022-09-17T02:59:37;8.50;99.90
5901;DHT22;2976;49.764;9.796;2022-09-17T03:02:29;8.50;99.90
5901;DHT22;2976;49.764;9.796;2022-09-17T03:04:57;8.50;99.90
5901;DHT22;2976;49.764;9.796;2022-09-17T03:07:24;8.60;99.90
5901;DHT22;2976;49.764;9.796;2022-09-17T03:09:49;8.60;99.90
5901;DHT22;2976;49.764;9.796;2022-09-17T03:12:15;8.60;99.90
5901;DHT22;2976;49.764;9.796;2022-09-17T03:14:41;8.70;99.90
5901;DHT22;2976;49.764;9.796;2022-09-17T03:17:06;8.70;99.90
5901;DHT22;2976;49.764;9.796;2022-09-17T03:19:32;8.70;99.90
5901;DHT22;2976;49.764;9.796;2022-09-17T03:21:57;8.70;99.90
5901;DHT22;2976;49.764;9.796;2022-09-17T03:24:23;8.70;99.90
5901;DHT22;2976;49.764;9.796;2022-09-17T03:26:49;8.70;99.90
5901;DHT22;2976;49.764;9.796;2022-09-17T03:29:15;8.70;99.90
5901;DHT22;2976;49.764;9.796;2022-09-17T03:31:41;8.70;99.90
5901;DHT22;2976;49.764;9.796;2022-09-17T03:34:06;8.70;99.90
5901;DHT22;2976;49.764;9.796;2022-09-17T03:36:33;8.70;99.90
5901;DHT22;2976;49.764;9.796;2022-09-17T03:38:58;8.80;99.90
5901;DHT22;2976;49.764;9.796;2022-09-17T03:41:24;8.70;99.90
5901;DHT22;2976;49.764;9.796;2022-09-17T03:43:50;8.70;99.90
5901;DHT22;2976;49.764;9.796;2022-09-17T03:46:16;8.80;99.90
5901;DHT22;2976;49.764;9.796;2022-09-17T03:48:42;8.80;99.90
5901;DHT22;2976;49.764;9.796;2022-09-17T03:51:07;8.70;99.90
5901;DHT22;2976;49.764;9.796;2022-09-17T03:53:33;8.70;99.90
5901;DHT22;2976;49.764;9.796;2022-09-17T03:56:01;8.70;99.90
5901;DHT22;2976;49.764;9.796;2022-09-17T03:58:28;8.70;99.90
5901;DHT22;2976;49.764;9.796;2022-09-17T04:00:54;8.70;99.90
5901;DHT22;2976;49.764;9.796;2022-09-17T04:03:22;8.70;99.90
5901;DHT22;2976;49.764;9.796;2022-09-17T04:05:48;8.60;99.90
5901;DHT22;2976;49.764;9.796;2022-09-17T04:08:13;8.60;99.90
5901;DHT22;2976;49.764;9.796;2022-09-17T04:10:39;8.60;99.90
5901;DHT22;2976;49.764;9.796;2022-09-17T04:13:04;8.50;99.90
5901;DHT22;2976;49.764;9.796;2022-09-17T04:15:30;8.40;99.90
5901;DHT22;2976;49.764;9.796;2022-09-17T04:17:56;8.40;99.90
5901;DHT22;2976;49.764;9.796;2022-09-17T04:20:25;8.40;99.90
5901;DHT22;2976;49.764;9.796;2022-09-17T04:22:51;8.40;99.90
5901;DHT22;2976;49.764;9.796;2022-09-17T04:25:17;8.40;99.90
5901;DHT22;2976;49.764;9.796;2022-09-17T04:27:43;8.30;99.90
5901;DHT22;2976;49.764;9.796;2022-09-17T04:30:10;8.30;99.90
5901;DHT22;2976;49.764;9.796;2022-09-17T04:32:35;8.30;99.90
5901;DHT22;2976;49.764;9.796;2022-09-17T04:35:01;8.20;99.90
5901;DHT22;2976;49.764;9.796;2022-09-17T04:37:26;8.20;99.90
5901;DHT22;2976;49.764;9.796;2022-09-17T04:39:52;8.20;99.90
5901;DHT22;2976;49.764;9.796;2022-09-17T04:42:18;8.20;99.90
5901;DHT22;2976;49.764;9.796;2022-09-17T04:44:43;8.10;99.90
5901;DHT22;2976;49.764;9.796;2022-09-17T04:47:09;8.10;99.90
5901;DHT22;2976;49.764;9.796;2022-09-17T04:49:34;8.10;99.90
5901;DHT22;2976;49.764;9.796;2022-09-17T04:52:00;8.10;99.90
5901;DHT22;2976;49.764;9.796;2022-09-17T04:54:25;8.00;99.90
5901;DHT22;2976;49.764;9.796;2022-09-17T04:56:51;8.00;99.90
5901;DHT22;2976;49.764;9.796;2022-09-17T04:59:16;8.00;99.90
5901;DHT22;2976;49.764;9.796;2022-09-17T05:01:42;8.00;99.90
5901;DHT22;2976;49.764;9.796;2022-09-17T05:04:08;8.00;99.90
5901;DHT22;2976;49.764;9.796;2022-09-17T05:06:34;8.00;99.90
5901;DHT22;2976;49.764;9.796;2022-09-17T05:09:00;8.00;99.90
5901;DHT22;2976;49.764;9.796;2022-09-17T05:11:27;7.90;99.90
5901;DHT22;2976;49.764;9.796;2022-09-17T05:13:53;7.90;99.90
5901;DHT22;2976;49.764;9.796;2022-09-17T05:16:18;7.90;99.90
5901;DHT22;2976;49.764;9.796;2022-09-17T05:18:44;8.00;99.90
5901;DHT22;2976;49.764;9.796;2022-09-17T05:21:10;8.00;99.90
5901;DHT22;2976;49.764;9.796;2022-09-17T05:23:35;7.90;99.90
5901;DHT22;2976;49.764;9.796;2022-09-17T05:26:01;7.90;99.90
5901;DHT22;2976;49.764;9.796;2022-09-17T05:28:27;8.00;99.90
5901;DHT22;2976;49.764;9.796;2022-09-17T05:30:53;8.00;99.90
5901;DHT22;2976;49.764;9.796;2022-09-17T05:33:18;8.00;99.90
5901;DHT22;2976;49.764;9.796;2022-09-17T05:35:45;8.00;99.90
5901;DHT22;2976;49.764;9.796;2022-09-17T05:38:10;7.90;99.90
5901;DHT22;2976;49.764;9.796;2022-09-17T05:40:36;8.00;99.90
5901;DHT22;2976;49.764;9.796;2022-09-17T05:43:04;8.00;99.90
5901;DHT22;2976;49.764;9.796;2022-09-17T05:45:31;8.00;99.90
5901;DHT22;2976;49.764;9.796;2022-09-17T05:47:58;8.00;99.90
5901;DHT22;2976;49.764;9.796;2022-09-17T05:50:25;8.00;99.90
5901;DHT22;2976;49.764;9.796;2022-09-17T05:52:52;8.00;99.90
5901;DHT22;2976;49.764;9.796;2022-09-17T05:55:19;8.00;99.90
5901;DHT22;2976;49.764;9.796;2022-09-17T05:57:45;8.00;99.90
5901;DHT22;2976;49.764;9.796;2022-09-17T06:00:11;8.10;99.90
5901;DHT22;2976;49.764;9.796;2022-09-17T06:02:37;8.10;99.90
5901;DHT22;2976;49.764;9.796;2022-09-17T06:05:03;8.10;99.90
5901;DHT22;2976;49.764;9.796;2022-09-17T06:07:29;8.10;99.90
5901;DHT22;2976;49.764;9.796;2022-09-17T06:09:54;8.10;99.90
5901;DHT22;2976;49.764;9.796;2022-09-17T06:12:20;8.10;99.90
5901;DHT22;2976;49.764;9.796;2022-09-17T06:14:46;8.20;99.90
5901;DHT22;2976;49.764;9.796;2022-09-17T06:17:12;8.20;99.90
5901;DHT22;2976;49.764;9.796;2022-09-17T06:19:37;8.20;99.90
5901;DHT22;2976;49.764;9.796;2022-09-17T06:22:03;8.20;99.90
5901;DHT22;2976;49.764;9.796;2022-09-17T06:24:30;8.20;99.90
5901;DHT22;2976;49.764;9.796;2022-09-17T06:26:56;8.20;99.90
5901;DHT22;2976;49.764;9.796;2022-09-17T06:29:21;8.20;99.90
5901;DHT22;2976;49.764;9.796;2022-09-17T06:31:47;8.20;99.90
5901;DHT22;2976;49.764;9.796;2022-09-17T06:34:13;8.30;99.90
5901;DHT22;2976;49.764;9.796;2022-09-17T06:36:39;8.30;99.90
5901;DHT22;2976;49.764;9.796;2022-09-17T06:39:05;8.30;99.90
5901;DHT22;2976;49.764;9.796;2022-09-17T06:41:30;8.30;99.90
5901;DHT22;2976;49.764;9.796;2022-09-17T06:43:56;8.40;99.90
5901;DHT22;2976;49.764;9.796;2022-09-17T06:46:21;8.40;99.90
5901;DHT22;2976;49.764;9.796;2022-09-17T06:48:47;8.40;99.90
5901;DHT22;2976;49.764;9.796;2022-09-17T06:51:13;8.40;99.90
5901;DHT22;2976;49.764;9.796;2022-09-17T06:53:39;8.50;99.90
5901;DHT22;2976;49.764;9.796;2022-09-17T06:56:06;8.50;99.90
5901;DHT22;2976;49.764;9.796;2022-09-17T06:58:33;8.60;99.90
5901;DHT22;2976;49.764;9.796;2022-09-17T07:01:02;8.60;99.90
5901;DHT22;2976;49.764;9.796;2022-09-17T07:03:29;8.60;99.90
5901;DHT22;2976;49.764;9.796;2022-09-17T07:05:55;8.60;99.90
5901;DHT22;2976;49.764;9.796;2022-09-17T07:08:21;8.70;99.90
5901;DHT22;2976;49.764;9.796;2022-09-17T07:10:47;8.70;99.90
5901;DHT22;2976;49.764;9.796;2022-09-17T07:13:13;8.80;99.90
5901;DHT22;2976;49.764;9.796;2022-09-17T07:15:38;8.80;99.90
5901;DHT22;2976;49.764;9.796;2022-09-17T07:18:10;8.90;99.90
5901;DHT22;2976;49.764;9.796;2022-09-17T07:20:36;8.90;99.90
5901;DHT22;2976;49.764;9.796;2022-09-17T07:23:03;8.90;99.90
5901;DHT22;2976;49.764;9.796;2022-09-17T07:25:28;9.00;99.90
5901;DHT22;2976;49.764;9.796;2022-09-17T07:27:54;9.10;99.90
5901;DHT22;2976;49.764;9.796;2022-09-17T07:30:21;9.10;99.90
5901;DHT22;2976;49.764;9.796;2022-09-17T07:32:46;9.30;99.90
5901;DHT22;2976;49.764;9.796;2022-09-17T07:35:12;9.40;99.90
5901;DHT22;2976;49.764;9.796;2022-09-17T07:37:38;9.50;99.90
5901;DHT22;2976;49.764;9.796;2022-09-17T07:40:04;9.40;99.90
5901;DHT22;2976;49.764;9.796;2022-09-17T07:42:33;9.40;99.90
5901;DHT22;2976;49.764;9.796;2022-09-17T07:44:59;9.50;99.90
5901;DHT22;2976;49.764;9.796;2022-09-17T07:47:25;9.70;99.90
5901;DHT22;2976;49.764;9.796;2022-09-17T07:49:50;10.00;99.90
5901;DHT22;2976;49.764;9.796;2022-09-17T07:52:16;10.00;99.90
5901;DHT22;2976;49.764;9.796;2022-09-17T07:54:41;10.00;99.90
5901;DHT22;2976;49.764;9.796;2022-09-17T07:57:07;10.10;99.90
5901;DHT22;2976;49.764;9.796;2022-09-17T07:59:32;10.10;99.90
5901;DHT22;2976;49.764;9.796;2022-09-17T08:01:58;10.10;99.90
5901;DHT22;2976;49.764;9.796;2022-09-17T08:04:24;10.20;99.90
5901;DHT22;2976;49.764;9.796;2022-09-17T08:06:49;10.20;99.90
5901;DHT22;2976;49.764;9.796;2022-09-17T08:09:15;10.20;99.90
5901;DHT22;2976;49.764;9.796;2022-09-17T08:11:42;10.20;99.90
5901;DHT22;2976;49.764;9.796;2022-09-17T08:14:12;10.20;99.90
5901;DHT22;2976;49.764;9.796;2022-09-17T08:16:38;10.10;99.90
5901;DHT22;2976;49.764;9.796;2022-09-17T08:19:04;10.00;99.90
5901;DHT22;2976;49.764;9.796;2022-09-17T08:21:30;9.90;99.90
5901;DHT22;2976;49.764;9.796;2022-09-17T08:23:55;9.80;99.90
5901;DHT22;2976;49.764;9.796;2022-09-17T08:26:22;9.70;99.90
5901;DHT22;2976;49.764;9.796;2022-09-17T08:28:50;9.60;99.90
5901;DHT22;2976;49.764;9.796;2022-09-17T08:31:19;9.50;99.90
5901;DHT22;2976;49.764;9.796;2022-09-17T08:33:45;9.60;99.90
5901;DHT22;2976;49.764;9.796;2022-09-17T08:36:13;9.60;99.90
5901;DHT22;2976;49.764;9.796;2022-09-17T08:38:39;9.60;99.90
5901;DHT22;2976;49.764;9.796;2022-09-17T08:43:41;9.70;99.90
5901;DHT22;2976;49.764;9.796;2022-09-17T08:46:09;9.90;99.90
5901;DHT22;2976;49.764;9.796;2022-09-17T08:48:45;10.10;99.90
5901;DHT22;2976;49.764;9.796;2022-09-17T08:54:33;10.60;99.90
5901;DHT22;2976;49.764;9.796;2022-09-17T09:00:00;11.00;99.90
5901;DHT22;2976;49.764;9.796;2022-09-17T09:05:21;11.40;99.90
5901;DHT22;2976;49.764;9.796;2022-09-17T09:07:54;11.40;99.90
5901;DHT22;2976;49.764;9.796;2022-09-17T09:10:23;11.60;99.90
5901;DHT22;2976;49.764;9.796;2022-09-17T09:12:53;11.90;99.90
5901;DHT22;2976;49.764;9.796;2022-09-17T09:15:36;12.20;99.90
5901;DHT22;2976;49.764;9.796;2022-09-17T09:18:21;12.20;99.90
5901;DHT22;2976;49.764;9.796;2022-09-17T09:26:15;11.70;99.90
5901;DHT22;2976;49.764;9.796;2022-09-17T09:33:52;11.60;99.90
5901;DHT22;2976;49.764;9.796;2022-09-17T09:36:19;11.70;99.90
5901;DHT22;2976;49.764;9.796;2022-09-17T09:41:33;12.10;99.90
5901;DHT22;2976;49.764;9.796;2022-09-17T09:44:11;12.20;99.90
5901;DHT22;2976;49.764;9.796;2022-09-17T09:47:14;12.40;93.40
5901;DHT22;2976;49.764;9.796;2022-09-17T09:58:34;12.20;70.10
5901;DHT22;2976;49.764;9.796;2022-09-17T10:01:01;12.30;93.60
5901;DHT22;2976;49.764;9.796;2022-09-17T10:03:28;12.20;99.90
5901;DHT22;2976;49.764;9.796;2022-09-17T10:05:59;11.70;99.90
5901;DHT22;2976;49.764;9.796;2022-09-17T10:08:27;11.10;99.90
5901;DHT22;2976;49.764;9.796;2022-09-17T10:13:27;10.80;99.90
5901;DHT22;2976;49.764;9.796;2022-09-17T10:15:53;10.80;99.90
5901;DHT22;2976;49.764;9.796;2022-09-17T10:18:23;11.10;99.90
5901;DHT22;2976;49.764;9.796;2022-09-17T10:20:53;11.40;99.90
5901;DHT22;2976;49.764;9.796;2022-09-17T10:23:21;11.70;99.90
5901;DHT22;2976;49.764;9.796;2022-09-17T10:25:47;11.90;99.90
5901;DHT22;2976;49.764;9.796;2022-09-17T10:28:37;11.90;99.90
5901;DHT22;2976;49.764;9.796;2022-09-17T10:31:07;11.90;99.90
5901;DHT22;2976;49.764;9.796;2022-09-17T10:33:38;12.00;99.90
5901;DHT22;2976;49.764;9.796;2022-09-17T10:36:06;12.30;99.90
5901;DHT22;2976;49.764;9.796;2022-09-17T10:41:20;12.50;92.70
5901;DHT22;2976;49.764;9.796;2022-09-17T10:43:47;12.50;99.90
5901;DHT22;2976;49.764;9.796;2022-09-17T10:46:25;12.60;99.90
5901;DHT22;2976;49.764;9.796;2022-09-17T10:49:09;12.60;94.20
5901;DHT22;2976;49.764;9.796;2022-09-17T10:51:36;12.50;93.70
5901;DHT22;2976;49.764;9.796;2022-09-17T10:56:34;12.90;87.80
5901;DHT22;2976;49.764;9.796;2022-09-17T11:05:32;12.70;94.60
5901;DHT22;2976;49.764;9.796;2022-09-17T11:08:07;12.60;98.80
5901;DHT22;2976;49.764;9.796;2022-09-17T11:18:46;12.70;92.80
5901;DHT22;2976;49.764;9.796;2022-09-17T11:37:47;13.30;1.00
5901;DHT22;2976;49.764;9.796;2022-09-17T11:40:26;13.50;25.90
5901;DHT22;2976;49.764;9.796;2022-09-17T11:43:02;13.70;19.60
5901;DHT22;2976;49.764;9.796;2022-09-17T11:45:40;13.70;5.00
5901;DHT22;2976;49.764;9.796;2022-09-17T11:48:16;13.90;29.70
5901;DHT22;2976;49.764;9.796;2022-09-17T11:55:59;13.10;29.80
5901;DHT22;2976;49.764;9.796;2022-09-17T12:01:42;13.40;24.20
5901;DHT22;2976;49.764;9.796;2022-09-17T12:04:26;13.30;40.80
5901;DHT22;2976;49.764;9.796;2022-09-17T12:06:58;13.50;35.30
5901;DHT22;2976;49.764;9.796;2022-09-17T12:09:28;13.40;45.60
5901;DHT22;2976;49.764;9.796;2022-09-17T12:12:19;13.20;25.00
5901;DHT22;2976;49.764;9.796;2022-09-17T12:14:56;13.20;56.80
5901;DHT22;2976;49.764;9.796;2022-09-17T12:17:30;13.10;51.60
5901;DHT22;2976;49.764;9.796;2022-09-17T12:20:03;13.20;53.10
5901;DHT22;2976;49.764;9.796;2022-09-17T12:22:34;13.30;47.00
5901;DHT22;2976;49.764;9.796;2022-09-17T12:25:02;13.30;50.60
5901;DHT22;2976;49.764;9.796;2022-09-17T12:27:37;13.10;30.80
5901;DHT22;2976;49.764;9.796;2022-09-17T12:51:59;13.60;1.00
5901;DHT22;2976;49.764;9.796;2022-09-17T12:59:51;13.00;11.20
5901;DHT22;2976;49.764;9.796;2022-09-17T13:02:24;13.10;1.00
5901;DHT22;2976;49.764;9.796;2022-09-17T13:05:14;13.40;1.00
5901;DHT22;2976;49.764;9.796;2022-09-17T13:08:15;13.60;1.00
5901;DHT22;2976;49.764;9.796;2022-09-17T13:13:46;13.50;1.00
5901;DHT22;2976;49.764;9.796;2022-09-17T13:22:19;14.10;1.00
5901;DHT22;2976;49.764;9.796;2022-09-17T13:24:46;14.00;1.00
5901;DHT22;2976;49.764;9.796;2022-09-17T13:27:25;13.70;1.00
5901;DHT22;2976;49.764;9.796;2022-09-17T13:40:04;13.10;1.00
5901;DHT22;2976;49.764;9.796;2022-09-17T13:42:43;13.10;11.80
5901;DHT22;2976;49.764;9.796;2022-09-17T13:45:13;12.90;52.00
5901;DHT22;2976;49.764;9.796;2022-09-17T13:48:02;12.90;54.10
5901;DHT22;2976;49.764;9.796;2022-09-17T13:55:46;13.10;1.00
5901;DHT22;2976;49.764;9.796;2022-09-17T14:01:05;13.10;1.00
5901;DHT22;2976;49.764;9.796;2022-09-17T14:11:35;13.40;1.00
5901;DHT22;2976;49.764;9.796;2022-09-17T14:19:33;13.10;1.00
5901;DHT22;2976;49.764;9.796;2022-09-17T14:22:15;13.30;1.00
5901;DHT22;2976;49.764;9.796;2022-09-17T14:38:19;13.70;1.00
5901;DHT22;2976;49.764;9.796;2022-09-17T14:41:02;13.60;1.00
5901;DHT22;2976;49.764;9.796;2022-09-17T14:43:54;13.60;99.90
5901;DHT22;2976;49.764;9.796;2022-09-17T14:46:24;13.70;1.00
5901;DHT22;2976;49.764;9.796;2022-09-17T14:48:51;13.80;1.00
5901;DHT22;2976;49.764;9.796;2022-09-17T14:54:08;14.10;97.90
5901;DHT22;2976;49.764;9.796;2022-09-17T14:56:44;14.20;11.40
5901;DHT22;2976;49.764;9.796;2022-09-17T14:59:49;14.20;23.50
5901;DHT22;2976;49.764;9.796;2022-09-17T15:02:36;14.20;99.90
5901;DHT22;2976;49.764;9.796;2022-09-17T15:05:25;14.10;99.90
5901;DHT22;2976;49.764;9.796;2022-09-17T15:08:14;14.10;99.90
5901;DHT22;2976;49.764;9.796;2022-09-17T15:10:55;14.10;99.90
5901;DHT22;2976;49.764;9.796;2022-09-17T15:13:25;14.10;1.00
5901;DHT22;2976;49.764;9.796;2022-09-17T15:15:57;14.30;99.90
5901;DHT22;2976;49.764;9.796;2022-09-17T15:18:32;14.60;1.00
5901;DHT22;2976;49.764;9.796;2022-09-17T15:21:00;14.80;10.40
5901;DHT22;2976;49.764;9.796;2022-09-17T15:23:29;14.70;66.30
5901;DHT22;2976;49.764;9.796;2022-09-17T15:25:57;14.40;99.90
5901;DHT22;2976;49.764;9.796;2022-09-17T15:28:28;14.20;99.90
5901;DHT22;2976;49.764;9.796;2022-09-17T15:30:55;13.90;99.90
5901;DHT22;2976;49.764;9.796;2022-09-17T15:33:21;13.80;99.90
5901;DHT22;2976;49.764;9.796;2022-09-17T15:36:14;13.70;1.00
5901;DHT22;2976;49.764;9.796;2022-09-17T15:38:41;13.60;1.00
5901;DHT22;2976;49.764;9.796;2022-09-17T15:43:48;13.20;1.00
5901;DHT22;2976;49.764;9.796;2022-09-17T15:46:24;12.90;1.00
5901;DHT22;2976;49.764;9.796;2022-09-17T15:49:01;11.90;1.00
5901;DHT22;2976;49.764;9.796;2022-09-17T15:51:29;11.20;35.70
5901;DHT22;2976;49.764;9.796;2022-09-17T15:54:04;10.80;70.90
5901;DHT22;2976;49.764;9.796;2022-09-17T15:56:35;10.60;95.70
5901;DHT22;2976;49.764;9.796;2022-09-17T15:59:03;10.50;99.90
5901;DHT22;2976;49.764;9.796;2022-09-17T16:08:56;10.30;99.90
5901;DHT22;2976;49.764;9.796;2022-09-17T16:11:28;10.30;99.90
5901;DHT22;2976;49.764;9.796;2022-09-17T16:13:55;10.30;99.90
5901;DHT22;2976;49.764;9.796;2022-09-17T16:16:35;10.20;99.90
5901;DHT22;2976;49.764;9.796;2022-09-17T16:19:02;10.20;99.90
5901;DHT22;2976;49.764;9.796;2022-09-17T16:21:27;10.30;99.90
5901;DHT22;2976;49.764;9.796;2022-09-17T16:23:53;10.40;99.90
5901;DHT22;2976;49.764;9.796;2022-09-17T16:26:21;10.60;99.10
5901;DHT22;2976;49.764;9.796;2022-09-17T16:28:53;10.80;97.80
5901;DHT22;2976;49.764;9.796;2022-09-17T16:31:19;10.90;97.20
5901;DHT22;2976;49.764;9.796;2022-09-17T16:33:45;10.90;97.20
5901;DHT22;2976;49.764;9.796;2022-09-17T16:36:11;10.90;97.70
5901;DHT22;2976;49.764;9.796;2022-09-17T16:38:36;10.80;99.80
5901;DHT22;2976;49.764;9.796;2022-09-17T16:41:06;10.80;99.90
5901;DHT22;2976;49.764;9.796;2022-09-17T16:43:32;10.80;99.90
5901;DHT22;2976;49.764;9.796;2022-09-17T16:46:00;10.70;99.90
5901;DHT22;2976;49.764;9.796;2022-09-17T16:48:26;10.60;99.90
5901;DHT22;2976;49.764;9.796;2022-09-17T16:50:51;10.50;99.90
5901;DHT22;2976;49.764;9.796;2022-09-17T16:53:17;10.50;99.90
5901;DHT22;2976;49.764;9.796;2022-09-17T16:55:42;10.40;99.90
5901;DHT22;2976;49.764;9.796;2022-09-17T16:58:08;10.30;99.90
5901;DHT22;2976;49.764;9.796;2022-09-17T17:00:33;10.20;99.90
5901;DHT22;2976;49.764;9.796;2022-09-17T17:03:01;10.10;99.90
5901;DHT22;2976;49.764;9.796;2022-09-17T17:05:27;10.10;99.90
5901;DHT22;2976;49.764;9.796;2022-09-17T17:07:53;10.10;99.90
5901;DHT22;2976;49.764;9.796;2022-09-17T17:10:23;10.00;99.90
5901;DHT22;2976;49.764;9.796;2022-09-17T17:12:50;10.00;99.90
5901;DHT22;2976;49.764;9.796;2022-09-17T17:15:16;9.90;99.90
5901;DHT22;2976;49.764;9.796;2022-09-17T17:17:43;9.90;99.90
5901;DHT22;2976;49.764;9.796;2022-09-17T17:20:09;9.90;99.90
5901;DHT22;2976;49.764;9.796;2022-09-17T17:22:35;9.90;99.90
5901;DHT22;2976;49.764;9.796;2022-09-17T17:25:03;9.90;99.90
5901;DHT22;2976;49.764;9.796;2022-09-17T17:27:29;9.80;99.90
5901;DHT22;2976;49.764;9.796;2022-09-17T17:29:55;9.80;99.90
5901;DHT22;2976;49.764;9.796;2022-09-17T17:32:21;9.70;99.90
5901;DHT22;2976;49.764;9.796;2022-09-17T17:34:46;9.60;99.90
5901;DHT22;2976;49.764;9.796;2022-09-17T17:37:12;9.60;99.90
5901;DHT22;2976;49.764;9.796;2022-09-17T17:39:39;9.50;99.90
5901;DHT22;2976;49.764;9.796;2022-09-17T17:42:04;9.50;99.90
5901;DHT22;2976;49.764;9.796;2022-09-17T17:44:30;9.40;99.90
5901;DHT22;2976;49.764;9.796;2022-09-17T17:46:55;9.40;99.90
5901;DHT22;2976;49.764;9.796;2022-09-17T17:49:21;9.30;99.90
5901;DHT22;2976;49.764;9.796;2022-09-17T17:51:47;9.30;99.90
5901;DHT22;2976;49.764;9.796;2022-09-17T17:54:12;9.30;99.90
5901;DHT22;2976;49.764;9.796;2022-09-17T17:56:38;9.40;99.90
5901;DHT22;2976;49.764;9.796;2022-09-17T17:59:04;9.40;99.90
5901;DHT22;2976;49.764;9.796;2022-09-17T18:01:30;9.40;99.90
5901;DHT22;2976;49.764;9.796;2022-09-17T18:04:00;9.40;99.90
5901;DHT22;2976;49.764;9.796;2022-09-17T18:06:27;9.50;99.90
5901;DHT22;2976;49.764;9.796;2022-09-17T18:08:53;9.60;99.90
5901;DHT22;2976;49.764;9.796;2022-09-17T18:11:20;9.60;99.90
5901;DHT22;2976;49.764;9.796;2022-09-17T18:13:53;9.70;99.90
5901;DHT22;2976;49.764;9.796;2022-09-17T18:16:19;9.70;99.90
5901;DHT22;2976;49.764;9.796;2022-09-17T18:18:45;9.70;99.90
5901;DHT22;2976;49.764;9.796;2022-09-17T18:21:13;9.70;99.70
5901;DHT22;2976;49.764;9.796;2022-09-17T18:23:40;9.70;99.90
5901;DHT22;2976;49.764;9.796;2022-09-17T18:26:09;9.60;99.90
5901;DHT22;2976;49.764;9.796;2022-09-17T18:28:35;9.60;99.90
5901;DHT22;2976;49.764;9.796;2022-09-17T18:31:22;9.60;99.90
5901;DHT22;2976;49.764;9.796;2022-09-17T18:34:12;9.60;99.90
5901;DHT22;2976;49.764;9.796;2022-09-17T18:36:39;9.60;99.90
5901;DHT22;2976;49.764;9.796;2022-09-17T18:39:07;9.60;99.90
5901;DHT22;2976;49.764;9.796;2022-09-17T18:41:35;9.60;99.90
5901;DHT22;2976;49.764;9.796;2022-09-17T18:44:09;9.60;99.90
5901;DHT22;2976;49.764;9.796;2022-09-17T18:46:35;9.50;99.90
5901;DHT22;2976;49.764;9.796;2022-09-17T18:49:01;9.50;99.90
5901;DHT22;2976;49.764;9.796;2022-09-17T18:51:28;9.40;99.90
5901;DHT22;2976;49.764;9.796;2022-09-17T18:53:54;9.40;99.90
5901;DHT22;2976;49.764;9.796;2022-09-17T18:56:23;9.30;99.90
5901;DHT22;2976;49.764;9.796;2022-09-17T18:58:51;9.30;99.90
5901;DHT22;2976;49.764;9.796;2022-09-17T19:01:17;9.30;99.90
5901;DHT22;2976;49.764;9.796;2022-09-17T19:03:44;9.20;99.90
5901;DHT22;2976;49.764;9.796;2022-09-17T19:06:11;9.10;99.90
5901;DHT22;2976;49.764;9.796;2022-09-17T19:08:39;9.10;99.90
5901;DHT22;2976;49.764;9.796;2022-09-17T19:11:05;9.00;99.90
5901;DHT22;2976;49.764;9.796;2022-09-17T19:13:39;9.00;99.90
5901;DHT22;2976;49.764;9.796;2022-09-17T19:16:06;8.90;99.90
5901;DHT22;2976;49.764;9.796;2022-09-17T19:18:32;8.90;99.90
5901;DHT22;2976;49.764;9.796;2022-09-17T19:21:03;8.80;99.90
5901;DHT22;2976;49.764;9.796;2022-09-17T19:23:29;8.80;99.90
5901;DHT22;2976;49.764;9.796;2022-09-17T19:25:56;8.90;99.90
5901;DHT22;2976;49.764;9.796;2022-09-17T19:28:22;8.90;99.90
5901;DHT22;2976;49.764;9.796;2022-09-17T19:30:48;8.90;99.90
5901;DHT22;2976;49.764;9.796;2022-09-17T19:33:14;8.80;99.90
5901;DHT22;2976;49.764;9.796;2022-09-17T19:35:39;8.80;99.90
5901;DHT22;2976;49.764;9.796;2022-09-17T19:38:05;8.70;99.90
5901;DHT22;2976;49.764;9.796;2022-09-17T19:40:31;8.70;99.90
5901;DHT22;2976;49.764;9.796;2022-09-17T19:42:57;8.70;99.90
5901;DHT22;2976;49.764;9.796;2022-09-17T19:45:24;8.70;99.90
5901;DHT22;2976;49.764;9.796;2022-09-17T19:47:50;8.70;99.90
5901;DHT22;2976;49.764;9.796;2022-09-17T19:50:17;8.60;99.90
5901;DHT22;2976;49.764;9.796;2022-09-17T19:52:43;8.60;99.90
5901;DHT22;2976;49.764;9.796;2022-09-17T19:55:09;8.60;99.90